sensor_id;sensor_type;location;lat;lon;timestamp;P1;durP1;ratioP1;P2;durP2;ratioP2
12363;SDS011;6246;50.826;4.712;2024-03-23T00:51:49;53.60;;;43.10;;
12363;SDS011;6246;50.826;4.712;2024-03-23T00:54:18;55.43;;;43.90;;
12363;SDS011;6246;50.826;4.712;2024-03-23T00:56:44;53.77;;;42.60;;
12363;SDS011;6246;50.826;4.712;2024-03-23T00:59:10;50.07;;;39.90;;
12363;SDS011;6246;50.826;4.712;2024-03-23T01:01:36;48.30;;;39.70;;
12363;SDS011;6246;50.826;4.712;2024-03-23T01:04:02;48.90;;;39.33;;
12363;SDS011;6246;50.826;4.712;2024-03-23T01:06:28;47.83;;;38.37;;
12363;SDS011;6246;50.826;4.712;2024-03-23T01:08:54;50.67;;;38.63;;
12363;SDS011;6246;50.826;4.712;2024-03-23T01:11:20;47.10;;;37.47;;
12363;SDS011;6246;50.826;4.712;2024-03-23T01:13:46;45.13;;;35.80;;
12363;SDS011;6246;50.826;4.712;2024-03-23T01:16:12;44.93;;;36.57;;
12363;SDS011;6246;50.826;4.712;2024-03-23T01:18:38;44.80;;;35.50;;
12363;SDS011;6246;50.826;4.712;2024-03-23T01:21:04;44.97;;;36.10;;
12363;SDS011;6246;50.826;4.712;2024-03-23T01:23:30;44.23;;;34.73;;
12363;SDS011;6246;50.826;4.712;2024-03-23T01:25:56;42.53;;;34.00;;
12363;SDS011;6246;50.826;4.712;2024-03-23T01:28:22;44.33;;;33.97;;
12363;SDS011;6246;50.826;4.712;2024-03-23T01:30:48;41.43;;;33.10;;
12363;SDS011;6246;50.826;4.712;2024-03-23T01:33:15;42.40;;;33.37;;
12363;SDS011;6246;50.826;4.712;2024-03-23T01:35:41;41.60;;;32.50;;
12363;SDS011;6246;50.826;4.712;2024-03-23T01:38:07;40.07;;;31.67;;
12363;SDS011;6246;50.826;4.712;2024-03-23T01:40:33;37.87;;;30.17;;
12363;SDS011;6246;50.826;4.712;2024-03-23T01:43:02;37.83;;;29.50;;
12363;SDS011;6246;50.826;4.712;2024-03-23T01:45:28;37.17;;;29.43;;
12363;SDS011;6246;50.826;4.712;2024-03-23T01:47:55;35.30;;;28.80;;
12363;SDS011;6246;50.826;4.712;2024-03-23T01:50:21;33.37;;;27.50;;
12363;SDS011;6246;50.826;4.712;2024-03-23T01:52:48;35.00;;;28.23;;
12363;SDS011;6246;50.826;4.712;2024-03-23T01:55:14;34.40;;;27.23;;
12363;SDS011;6246;50.826;4.712;2024-03-23T01:57:40;36.30;;;27.80;;
12363;SDS011;6246;50.826;4.712;2024-03-23T02:00:06;34.67;;;26.70;;
12363;SDS011;6246;50.826;4.712;2024-03-23T02:02:32;35.13;;;27.20;;
12363;SDS011;6246;50.826;4.712;2024-03-23T02:04:58;34.60;;;26.53;;
12363;SDS011;6246;50.826;4.712;2024-03-23T02:07:24;32.83;;;25.07;;
12363;SDS011;6246;50.826;4.712;2024-03-23T02:09:53;31.03;;;24.23;;
12363;SDS011;6246;50.826;4.712;2024-03-23T02:12:20;32.07;;;24.93;;
12363;SDS011;6246;50.826;4.712;2024-03-23T02:14:47;32.00;;;24.37;;
12363;SDS011;6246;50.826;4.712;2024-03-23T02:17:13;30.67;;;23.33;;
12363;SDS011;6246;50.826;4.712;2024-03-23T02:19:39;29.23;;;22.43;;
12363;SDS011;6246;50.826;4.712;2024-03-23T02:22:05;29.10;;;21.90;;
12363;SDS011;6246;50.826;4.712;2024-03-23T02:24:31;26.43;;;21.73;;
12363;SDS011;6246;50.826;4.712;2024-03-23T02:26:57;27.93;;;21.83;;
12363;SDS011;6246;50.826;4.712;2024-03-23T02:29:23;26.37;;;20.63;;
12363;SDS011;6246;50.826;4.712;2024-03-23T02:31:49;25.17;;;19.63;;
12363;SDS011;6246;50.826;4.712;2024-03-23T02:34:14;26.27;;;19.80;;
12363;SDS011;6246;50.826;4.712;2024-03-23T02:36:40;25.30;;;19.60;;
12363;SDS011;6246;50.826;4.712;2024-03-23T02:39:06;27.07;;;20.57;;
12363;SDS011;6246;50.826;4.712;2024-03-23T02:41:33;24.13;;;18.53;;
12363;SDS011;6246;50.826;4.712;2024-03-23T02:43:59;24.00;;;18.47;;
12363;SDS011;6246;50.826;4.712;2024-03-23T02:46:25;22.53;;;17.87;;
12363;SDS011;6246;50.826;4.712;2024-03-23T02:48:50;24.27;;;18.73;;
12363;SDS011;6246;50.826;4.712;2024-03-23T02:51:16;22.70;;;18.23;;
12363;SDS011;6246;50.826;4.712;2024-03-23T02:53:43;21.63;;;16.90;;
12363;SDS011;6246;50.826;4.712;2024-03-23T02:56:09;22.47;;;17.13;;
12363;SDS011;6246;50.826;4.712;2024-03-23T02:58:40;21.57;;;16.97;;
12363;SDS011;6246;50.826;4.712;2024-03-23T03:01:06;23.33;;;17.13;;
12363;SDS011;6246;50.826;4.712;2024-03-23T03:03:32;21.43;;;16.20;;
12363;SDS011;6246;50.826;4.712;2024-03-23T03:05:58;21.47;;;16.23;;
12363;SDS011;6246;50.826;4.712;2024-03-23T03:08:24;19.33;;;15.37;;
12363;SDS011;6246;50.826;4.712;2024-03-23T03:10:50;20.53;;;15.20;;
12363;SDS011;6246;50.826;4.712;2024-03-23T03:13:16;19.77;;;14.80;;
12363;SDS011;6246;50.826;4.712;2024-03-23T03:15:43;18.13;;;14.40;;
12363;SDS011;6246;50.826;4.712;2024-03-23T03:18:09;20.17;;;15.50;;
12363;SDS011;6246;50.826;4.712;2024-03-23T03:20:38;21.13;;;14.90;;
12363;SDS011;6246;50.826;4.712;2024-03-23T03:23:04;18.30;;;13.13;;
12363;SDS011;6246;50.826;4.712;2024-03-23T03:25:30;16.67;;;13.17;;
12363;SDS011;6246;50.826;4.712;2024-03-23T03:27:56;17.83;;;13.13;;
12363;SDS011;6246;50.826;4.712;2024-03-23T03:30:22;16.83;;;13.03;;
12363;SDS011;6246;50.826;4.712;2024-03-23T03:32:49;16.70;;;12.77;;
12363;SDS011;6246;50.826;4.712;2024-03-23T03:35:15;15.57;;;11.97;;
12363;SDS011;6246;50.826;4.712;2024-03-23T03:37:41;16.23;;;11.90;;
12363;SDS011;6246;50.826;4.712;2024-03-23T03:40:07;18.27;;;12.40;;
12363;SDS011;6246;50.826;4.712;2024-03-23T03:42:34;16.33;;;11.70;;
12363;SDS011;6246;50.826;4.712;2024-03-23T03:45:00;15.87;;;11.77;;
12363;SDS011;6246;50.826;4.712;2024-03-23T03:47:26;15.37;;;11.87;;
12363;SDS011;6246;50.826;4.712;2024-03-23T03:49:52;16.30;;;12.10;;
12363;SDS011;6246;50.826;4.712;2024-03-23T03:52:18;15.57;;;10.77;;
12363;SDS011;6246;50.826;4.712;2024-03-23T03:54:44;15.67;;;11.27;;
12363;SDS011;6246;50.826;4.712;2024-03-23T03:57:10;15.20;;;10.97;;
12363;SDS011;6246;50.826;4.712;2024-03-23T03:59:36;15.13;;;11.10;;
12363;SDS011;6246;50.826;4.712;2024-03-23T04:02:02;14.00;;;10.50;;
12363;SDS011;6246;50.826;4.712;2024-03-23T04:04:28;13.93;;;10.20;;
12363;SDS011;6246;50.826;4.712;2024-03-23T04:07:00;14.80;;;9.77;;
12363;SDS011;6246;50.826;4.712;2024-03-23T04:09:26;14.57;;;9.63;;
12363;SDS011;6246;50.826;4.712;2024-03-23T04:11:52;12.87;;;9.53;;
12363;SDS011;6246;50.826;4.712;2024-03-23T04:14:18;13.27;;;9.33;;
12363;SDS011;6246;50.826;4.712;2024-03-23T04:16:44;13.13;;;9.37;;
12363;SDS011;6246;50.826;4.712;2024-03-23T04:19:10;13.03;;;9.00;;
12363;SDS011;6246;50.826;4.712;2024-03-23T04:21:36;12.50;;;9.10;;
12363;SDS011;6246;50.826;4.712;2024-03-23T04:24:03;14.20;;;8.97;;
12363;SDS011;6246;50.826;4.712;2024-03-23T04:26:29;11.40;;;8.60;;
12363;SDS011;6246;50.826;4.712;2024-03-23T04:28:55;11.57;;;8.17;;
12363;SDS011;6246;50.826;4.712;2024-03-23T04:31:21;12.93;;;8.20;;
12363;SDS011;6246;50.826;4.712;2024-03-23T04:33:47;12.33;;;8.47;;
12363;SDS011;6246;50.826;4.712;2024-03-23T04:36:13;11.03;;;7.87;;
12363;SDS011;6246;50.826;4.712;2024-03-23T04:38:39;11.67;;;8.53;;
12363;SDS011;6246;50.826;4.712;2024-03-23T04:41:05;11.63;;;7.90;;
12363;SDS011;6246;50.826;4.712;2024-03-23T04:43:31;10.17;;;7.37;;
12363;SDS011;6246;50.826;4.712;2024-03-23T04:45:57;11.63;;;7.70;;
12363;SDS011;6246;50.826;4.712;2024-03-23T04:48:23;10.77;;;7.33;;
12363;SDS011;6246;50.826;4.712;2024-03-23T04:50:49;11.00;;;7.77;;
12363;SDS011;6246;50.826;4.712;2024-03-23T04:53:20;10.77;;;7.10;;
12363;SDS011;6246;50.826;4.712;2024-03-23T04:55:46;9.90;;;6.47;;
12363;SDS011;6246;50.826;4.712;2024-03-23T04:58:12;11.10;;;6.90;;
12363;SDS011;6246;50.826;4.712;2024-03-23T05:00:38;9.83;;;6.73;;
12363;SDS011;6246;50.826;4.712;2024-03-23T05:03:04;8.80;;;6.73;;
12363;SDS011;6246;50.826;4.712;2024-03-23T05:05:30;9.90;;;6.67;;
12363;SDS011;6246;50.826;4.712;2024-03-23T05:07:56;9.80;;;6.93;;
12363;SDS011;6246;50.826;4.712;2024-03-23T05:10:22;10.00;;;6.80;;
12363;SDS011;6246;50.826;4.712;2024-03-23T05:12:48;9.60;;;6.00;;
12363;SDS011;6246;50.826;4.712;2024-03-23T05:15:14;9.53;;;6.23;;
12363;SDS011;6246;50.826;4.712;2024-03-23T05:17:40;8.67;;;6.00;;
12363;SDS011;6246;50.826;4.712;2024-03-23T05:20:06;8.63;;;6.17;;
12363;SDS011;6246;50.826;4.712;2024-03-23T05:22:34;9.07;;;6.37;;
12363;SDS011;6246;50.826;4.712;2024-03-23T05:25:01;8.10;;;6.03;;
12363;SDS011;6246;50.826;4.712;2024-03-23T05:27:29;8.07;;;5.73;;
12363;SDS011;6246;50.826;4.712;2024-03-23T05:29:55;8.50;;;5.40;;
12363;SDS011;6246;50.826;4.712;2024-03-23T05:32:22;6.87;;;5.47;;
12363;SDS011;6246;50.826;4.712;2024-03-23T05:34:48;8.40;;;5.47;;
12363;SDS011;6246;50.826;4.712;2024-03-23T05:37:20;7.77;;;5.83;;
12363;SDS011;6246;50.826;4.712;2024-03-23T05:39:46;8.00;;;5.47;;
12363;SDS011;6246;50.826;4.712;2024-03-23T05:42:14;7.50;;;5.57;;
12363;SDS011;6246;50.826;4.712;2024-03-23T05:44:40;8.50;;;5.50;;
12363;SDS011;6246;50.826;4.712;2024-03-23T05:47:06;7.57;;;5.23;;
12363;SDS011;6246;50.826;4.712;2024-03-23T05:49:32;7.93;;;5.43;;
12363;SDS011;6246;50.826;4.712;2024-03-23T05:51:58;8.23;;;5.27;;
12363;SDS011;6246;50.826;4.712;2024-03-23T05:54:27;6.63;;;4.53;;
12363;SDS011;6246;50.826;4.712;2024-03-23T05:56:56;7.77;;;5.03;;
12363;SDS011;6246;50.826;4.712;2024-03-23T05:59:22;6.10;;;4.90;;
12363;SDS011;6246;50.826;4.712;2024-03-23T06:01:48;7.07;;;4.67;;
12363;SDS011;6246;50.826;4.712;2024-03-23T06:04:14;5.50;;;4.60;;
12363;SDS011;6246;50.826;4.712;2024-03-23T06:06:40;6.23;;;4.77;;
12363;SDS011;6246;50.826;4.712;2024-03-23T06:09:06;5.07;;;4.20;;
12363;SDS011;6246;50.826;4.712;2024-03-23T06:11:32;6.93;;;4.50;;
12363;SDS011;6246;50.826;4.712;2024-03-23T06:13:58;7.83;;;4.67;;
12363;SDS011;6246;50.826;4.712;2024-03-23T06:16:24;6.63;;;4.43;;
12363;SDS011;6246;50.826;4.712;2024-03-23T06:18:50;5.57;;;4.23;;
12363;SDS011;6246;50.826;4.712;2024-03-23T06:21:16;6.80;;;4.60;;
12363;SDS011;6246;50.826;4.712;2024-03-23T06:23:42;6.50;;;4.33;;
12363;SDS011;6246;50.826;4.712;2024-03-23T06:26:13;5.23;;;4.23;;
12363;SDS011;6246;50.826;4.712;2024-03-23T06:28:39;7.83;;;4.87;;
12363;SDS011;6246;50.826;4.712;2024-03-23T06:31:08;6.63;;;4.40;;
12363;SDS011;6246;50.826;4.712;2024-03-23T06:33:35;5.60;;;3.80;;
12363;SDS011;6246;50.826;4.712;2024-03-23T06:36:01;5.20;;;3.63;;
12363;SDS011;6246;50.826;4.712;2024-03-23T06:38:28;6.90;;;3.80;;
12363;SDS011;6246;50.826;4.712;2024-03-23T06:40:54;6.37;;;4.13;;
12363;SDS011;6246;50.826;4.712;2024-03-23T06:43:20;5.87;;;3.67;;
12363;SDS011;6246;50.826;4.712;2024-03-23T06:45:55;5.00;;;3.80;;
12363;SDS011;6246;50.826;4.712;2024-03-23T06:48:21;4.83;;;3.57;;
12363;SDS011;6246;50.826;4.712;2024-03-23T06:50:47;5.67;;;4.10;;
12363;SDS011;6246;50.826;4.712;2024-03-23T06:53:14;5.10;;;3.60;;
12363;SDS011;6246;50.826;4.712;2024-03-23T06:55:40;8.23;;;3.87;;
12363;SDS011;6246;50.826;4.712;2024-03-23T06:58:06;5.00;;;3.60;;
12363;SDS011;6246;50.826;4.712;2024-03-23T07:00:32;4.33;;;3.73;;
12363;SDS011;6246;50.826;4.712;2024-03-23T07:02:59;5.50;;;3.50;;
12363;SDS011;6246;50.826;4.712;2024-03-23T07:05:25;3.70;;;3.37;;
12363;SDS011;6246;50.826;4.712;2024-03-23T07:07:51;4.80;;;3.10;;
12363;SDS011;6246;50.826;4.712;2024-03-23T07:10:17;5.90;;;3.50;;
12363;SDS011;6246;50.826;4.712;2024-03-23T07:12:43;4.03;;;3.20;;
12363;SDS011;6246;50.826;4.712;2024-03-23T07:15:09;4.47;;;3.20;;
12363;SDS011;6246;50.826;4.712;2024-03-23T07:17:36;3.80;;;3.27;;
12363;SDS011;6246;50.826;4.712;2024-03-23T07:20:02;4.07;;;3.03;;
12363;SDS011;6246;50.826;4.712;2024-03-23T07:22:32;5.27;;;3.00;;
12363;SDS011;6246;50.826;4.712;2024-03-23T07:25:01;5.67;;;2.97;;
12363;SDS011;6246;50.826;4.712;2024-03-23T07:27:27;5.13;;;3.00;;
12363;SDS011;6246;50.826;4.712;2024-03-23T07:29:53;4.60;;;3.37;;
12363;SDS011;6246;50.826;4.712;2024-03-23T07:32:20;5.73;;;3.20;;
12363;SDS011;6246;50.826;4.712;2024-03-23T07:34:46;4.20;;;3.03;;
12363;SDS011;6246;50.826;4.712;2024-03-23T07:37:12;5.13;;;3.07;;
12363;SDS011;6246;50.826;4.712;2024-03-23T07:39:39;4.10;;;2.83;;
12363;SDS011;6246;50.826;4.712;2024-03-23T07:42:05;5.23;;;3.03;;
12363;SDS011;6246;50.826;4.712;2024-03-23T07:44:31;4.73;;;2.60;;
12363;SDS011;6246;50.826;4.712;2024-03-23T07:46:58;2.93;;;2.43;;
12363;SDS011;6246;50.826;4.712;2024-03-23T07:49:24;3.53;;;2.60;;
12363;SDS011;6246;50.826;4.712;2024-03-23T07:51:50;4.27;;;2.80;;
12363;SDS011;6246;50.826;4.712;2024-03-23T07:54:16;7.37;;;3.20;;
12363;SDS011;6246;50.826;4.712;2024-03-23T07:56:42;5.20;;;3.10;;
12363;SDS011;6246;50.826;4.712;2024-03-23T07:59:08;11.33;;;3.17;;
12363;SDS011;6246;50.826;4.712;2024-03-23T08:01:34;4.70;;;3.37;;
12363;SDS011;6246;50.826;4.712;2024-03-23T08:04:00;7.70;;;4.97;;
12363;SDS011;6246;50.826;4.712;2024-03-23T08:06:26;15.13;;;10.90;;
12363;SDS011;6246;50.826;4.712;2024-03-23T08:08:54;24.90;;;17.23;;
12363;SDS011;6246;50.826;4.712;2024-03-23T08:11:27;38.83;;;27.73;;
12363;SDS011;6246;50.826;4.712;2024-03-23T08:13:53;38.23;;;25.50;;
12363;SDS011;6246;50.826;4.712;2024-03-23T08:16:20;28.37;;;19.03;;
12363;SDS011;6246;50.826;4.712;2024-03-23T08:18:46;25.77;;;18.73;;
12363;SDS011;6246;50.826;4.712;2024-03-23T08:21:12;32.20;;;21.50;;
12363;SDS011;6246;50.826;4.712;2024-03-23T08:23:38;28.57;;;20.43;;
12363;SDS011;6246;50.826;4.712;2024-03-23T08:26:05;29.63;;;21.00;;
12363;SDS011;6246;50.826;4.712;2024-03-23T08:28:31;32.77;;;23.80;;
12363;SDS011;6246;50.826;4.712;2024-03-23T08:31:00;36.37;;;26.07;;
12363;SDS011;6246;50.826;4.712;2024-03-23T08:33:26;37.07;;;27.17;;
12363;SDS011;6246;50.826;4.712;2024-03-23T08:35:53;36.47;;;27.13;;
12363;SDS011;6246;50.826;4.712;2024-03-23T08:38:19;37.67;;;28.07;;
12363;SDS011;6246;50.826;4.712;2024-03-23T08:40:45;41.57;;;31.60;;
12363;SDS011;6246;50.826;4.712;2024-03-23T08:43:11;39.73;;;29.77;;
12363;SDS011;6246;50.826;4.712;2024-03-23T08:45:37;44.40;;;32.23;;
12363;SDS011;6246;50.826;4.712;2024-03-23T08:48:03;41.53;;;31.20;;
12363;SDS011;6246;50.826;4.712;2024-03-23T08:50:30;41.00;;;30.83;;
12363;SDS011;6246;50.826;4.712;2024-03-23T08:52:55;40.33;;;29.53;;
12363;SDS011;6246;50.826;4.712;2024-03-23T08:55:21;42.47;;;30.47;;
12363;SDS011;6246;50.826;4.712;2024-03-23T08:57:47;40.47;;;30.53;;
12363;SDS011;6246;50.826;4.712;2024-03-23T09:00:13;41.60;;;30.37;;
12363;SDS011;6246;50.826;4.712;2024-03-23T09:02:40;40.30;;;30.47;;
12363;SDS011;6246;50.826;4.712;2024-03-23T09:05:06;40.33;;;30.43;;
12363;SDS011;6246;50.826;4.712;2024-03-23T09:07:32;43.60;;;31.00;;
12363;SDS011;6246;50.826;4.712;2024-03-23T09:09:58;41.37;;;29.63;;
12363;SDS011;6246;50.826;4.712;2024-03-23T09:12:24;41.10;;;30.00;;
12363;SDS011;6246;50.826;4.712;2024-03-23T09:14:50;41.13;;;30.20;;
12363;SDS011;6246;50.826;4.712;2024-03-23T09:17:18;37.83;;;29.57;;
12363;SDS011;6246;50.826;4.712;2024-03-23T09:19:44;41.03;;;29.53;;
12363;SDS011;6246;50.826;4.712;2024-03-23T09:22:10;36.77;;;28.17;;
12363;SDS011;6246;50.826;4.712;2024-03-23T09:24:36;39.17;;;29.30;;
12363;SDS011;6246;50.826;4.712;2024-03-23T09:27:02;36.63;;;28.20;;
12363;SDS011;6246;50.826;4.712;2024-03-23T09:29:28;35.87;;;27.20;;
12363;SDS011;6246;50.826;4.712;2024-03-23T09:31:54;37.87;;;27.40;;
12363;SDS011;6246;50.826;4.712;2024-03-23T09:34:20;34.67;;;27.23;;
12363;SDS011;6246;50.826;4.712;2024-03-23T09:36:47;36.93;;;26.70;;
12363;SDS011;6246;50.826;4.712;2024-03-23T09:39:16;34.63;;;26.20;;
12363;SDS011;6246;50.826;4.712;2024-03-23T09:41:42;36.10;;;25.60;;
12363;SDS011;6246;50.826;4.712;2024-03-23T09:44:08;35.50;;;25.10;;
12363;SDS011;6246;50.826;4.712;2024-03-23T09:46:34;32.30;;;23.33;;
12363;SDS011;6246;50.826;4.712;2024-03-23T09:49:01;34.67;;;23.63;;
12363;SDS011;6246;50.826;4.712;2024-03-23T09:51:29;34.17;;;23.80;;
12363;SDS011;6246;50.826;4.712;2024-03-23T09:53:55;32.47;;;23.67;;
12363;SDS011;6246;50.826;4.712;2024-03-23T09:56:22;31.97;;;23.57;;
12363;SDS011;6246;50.826;4.712;2024-03-23T09:58:49;31.67;;;23.47;;
12363;SDS011;6246;50.826;4.712;2024-03-23T10:01:15;33.80;;;23.40;;
12363;SDS011;6246;50.826;4.712;2024-03-23T10:03:44;38.57;;;27.70;;
12363;SDS011;6246;50.826;4.712;2024-03-23T10:06:11;38.93;;;28.57;;
12363;SDS011;6246;50.826;4.712;2024-03-23T10:08:37;39.80;;;30.73;;
12363;SDS011;6246;50.826;4.712;2024-03-23T10:11:15;41.93;;;31.03;;
12363;SDS011;6246;50.826;4.712;2024-03-23T10:13:42;44.10;;;32.63;;
12363;SDS011;6246;50.826;4.712;2024-03-23T10:16:09;43.23;;;33.53;;
12363;SDS011;6246;50.826;4.712;2024-03-23T10:18:39;41.90;;;32.90;;
12363;SDS011;6246;50.826;4.712;2024-03-23T10:23:35;43.27;;;34.30;;
12363;SDS011;6246;50.826;4.712;2024-03-23T10:26:17;46.20;;;35.13;;
12363;SDS011;6246;50.826;4.712;2024-03-23T10:29:17;43.63;;;34.67;;
12363;SDS011;6246;50.826;4.712;2024-03-23T10:31:37;47.40;;;34.13;;
12363;SDS011;6246;50.826;4.712;2024-03-23T10:34:06;42.27;;;33.40;;
12363;SDS011;6246;50.826;4.712;2024-03-23T10:36:33;42.70;;;33.37;;
12363;SDS011;6246;50.826;4.712;2024-03-23T10:39:00;39.47;;;32.03;;
12363;SDS011;6246;50.826;4.712;2024-03-23T10:41:29;44.10;;;33.30;;
12363;SDS011;6246;50.826;4.712;2024-03-23T10:43:57;44.07;;;32.87;;
12363;SDS011;6246;50.826;4.712;2024-03-23T10:46:24;44.17;;;33.33;;
12363;SDS011;6246;50.826;4.712;2024-03-23T10:48:50;40.73;;;32.90;;
12363;SDS011;6246;50.826;4.712;2024-03-23T10:51:16;39.17;;;31.33;;
12363;SDS011;6246;50.826;4.712;2024-03-23T10:53:42;40.17;;;31.40;;
12363;SDS011;6246;50.826;4.712;2024-03-23T10:56:08;39.93;;;30.63;;
12363;SDS011;6246;50.826;4.712;2024-03-23T10:58:40;40.00;;;29.90;;
12363;SDS011;6246;50.826;4.712;2024-03-23T11:01:06;37.67;;;29.90;;
12363;SDS011;6246;50.826;4.712;2024-03-23T11:03:36;37.53;;;30.17;;
12363;SDS011;6246;50.826;4.712;2024-03-23T11:06:05;37.23;;;29.53;;
12363;SDS011;6246;50.826;4.712;2024-03-23T11:11:20;35.17;;;28.30;;
12363;SDS011;6246;50.826;4.712;2024-03-23T11:13:52;37.17;;;27.87;;
12363;SDS011;6246;50.826;4.712;2024-03-23T11:16:24;36.57;;;28.10;;
12363;SDS011;6246;50.826;4.712;2024-03-23T11:21:53;31.53;;;24.93;;
12363;SDS011;6246;50.826;4.712;2024-03-23T11:24:20;29.37;;;24.13;;
12363;SDS011;6246;50.826;4.712;2024-03-23T11:26:46;30.83;;;23.17;;
12363;SDS011;6246;50.826;4.712;2024-03-23T11:29:13;30.33;;;23.07;;
12363;SDS011;6246;50.826;4.712;2024-03-23T11:31:45;30.53;;;24.33;;
12363;SDS011;6246;50.826;4.712;2024-03-23T11:34:11;29.43;;;23.37;;
12363;SDS011;6246;50.826;4.712;2024-03-23T11:36:37;30.03;;;22.53;;
12363;SDS011;6246;50.826;4.712;2024-03-23T11:39:13;27.47;;;22.50;;
12363;SDS011;6246;50.826;4.712;2024-03-23T11:41:51;26.87;;;21.80;;
12363;SDS011;6246;50.826;4.712;2024-03-23T11:44:21;28.07;;;21.53;;
12363;SDS011;6246;50.826;4.712;2024-03-23T11:46:50;26.40;;;20.87;;
12363;SDS011;6246;50.826;4.712;2024-03-23T11:49:23;27.13;;;20.43;;
12363;SDS011;6246;50.826;4.712;2024-03-23T11:51:50;27.53;;;20.43;;
12363;SDS011;6246;50.826;4.712;2024-03-23T11:54:16;25.83;;;20.57;;
12363;SDS011;6246;50.826;4.712;2024-03-23T11:56:55;25.77;;;20.00;;
12363;SDS011;6246;50.826;4.712;2024-03-23T11:59:37;24.40;;;18.90;;
12363;SDS011;6246;50.826;4.712;2024-03-23T12:02:06;27.03;;;18.93;;
12363;SDS011;6246;50.826;4.712;2024-03-23T12:04:33;24.13;;;18.60;;
12363;SDS011;6246;50.826;4.712;2024-03-23T12:07:13;24.30;;;17.73;;
12363;SDS011;6246;50.826;4.712;2024-03-23T12:09:40;22.93;;;16.50;;
12363;SDS011;6246;50.826;4.712;2024-03-23T12:12:10;22.43;;;15.50;;
12363;SDS011;6246;50.826;4.712;2024-03-23T12:14:36;21.87;;;15.77;;
12363;SDS011;6246;50.826;4.712;2024-03-23T12:17:09;17.67;;;13.10;;
12363;SDS011;6246;50.826;4.712;2024-03-23T12:19:35;19.47;;;14.77;;
12363;SDS011;6246;50.826;4.712;2024-03-23T12:22:02;18.03;;;14.03;;
12363;SDS011;6246;50.826;4.712;2024-03-23T12:24:28;15.93;;;12.50;;
12363;SDS011;6246;50.826;4.712;2024-03-23T12:26:54;16.00;;;12.47;;
12363;SDS011;6246;50.826;4.712;2024-03-23T12:29:21;15.83;;;11.83;;
12363;SDS011;6246;50.826;4.712;2024-03-23T12:31:47;18.10;;;12.83;;
12363;SDS011;6246;50.826;4.712;2024-03-23T12:34:13;15.63;;;12.03;;
12363;SDS011;6246;50.826;4.712;2024-03-23T12:36:39;15.07;;;11.40;;
12363;SDS011;6246;50.826;4.712;2024-03-23T12:39:05;14.20;;;10.87;;
12363;SDS011;6246;50.826;4.712;2024-03-23T12:41:31;14.43;;;11.13;;
12363;SDS011;6246;50.826;4.712;2024-03-23T12:43:58;14.20;;;10.87;;
12363;SDS011;6246;50.826;4.712;2024-03-23T12:46:24;14.83;;;10.37;;
12363;SDS011;6246;50.826;4.712;2024-03-23T12:48:50;14.00;;;9.77;;
12363;SDS011;6246;50.826;4.712;2024-03-23T12:51:16;13.73;;;9.47;;
12363;SDS011;6246;50.826;4.712;2024-03-23T12:53:42;13.97;;;9.43;;
12363;SDS011;6246;50.826;4.712;2024-03-23T12:56:11;12.50;;;9.13;;
12363;SDS011;6246;50.826;4.712;2024-03-23T12:58:37;13.03;;;8.73;;
12363;SDS011;6246;50.826;4.712;2024-03-23T13:01:03;11.63;;;8.43;;
12363;SDS011;6246;50.826;4.712;2024-03-23T13:03:31;11.47;;;8.97;;
12363;SDS011;6246;50.826;4.712;2024-03-23T13:05:57;11.73;;;8.67;;
12363;SDS011;6246;50.826;4.712;2024-03-23T13:08:23;13.90;;;8.77;;
12363;SDS011;6246;50.826;4.712;2024-03-23T13:10:51;12.20;;;8.53;;
12363;SDS011;6246;50.826;4.712;2024-03-23T13:13:17;10.97;;;8.13;;
12363;SDS011;6246;50.826;4.712;2024-03-23T13:15:49;11.50;;;8.70;;
12363;SDS011;6246;50.826;4.712;2024-03-23T13:18:15;11.97;;;8.10;;
12363;SDS011;6246;50.826;4.712;2024-03-23T13:20:41;10.57;;;7.50;;
12363;SDS011;6246;50.826;4.712;2024-03-23T13:23:07;10.80;;;7.23;;
12363;SDS011;6246;50.826;4.712;2024-03-23T13:25:33;11.10;;;7.13;;
12363;SDS011;6246;50.826;4.712;2024-03-23T13:28:00;9.70;;;6.97;;
12363;SDS011;6246;50.826;4.712;2024-03-23T13:30:27;10.43;;;7.00;;
12363;SDS011;6246;50.826;4.712;2024-03-23T13:32:53;8.37;;;6.73;;
12363;SDS011;6246;50.826;4.712;2024-03-23T13:35:19;10.53;;;7.07;;
12363;SDS011;6246;50.826;4.712;2024-03-23T13:37:45;8.57;;;6.77;;
12363;SDS011;6246;50.826;4.712;2024-03-23T13:40:11;8.73;;;6.40;;
12363;SDS011;6246;50.826;4.712;2024-03-23T13:42:37;10.73;;;6.80;;
12363;SDS011;6246;50.826;4.712;2024-03-23T13:45:03;10.20;;;6.50;;
12363;SDS011;6246;50.826;4.712;2024-03-23T13:47:29;8.23;;;6.17;;
12363;SDS011;6246;50.826;4.712;2024-03-23T13:49:55;9.97;;;6.30;;
12363;SDS011;6246;50.826;4.712;2024-03-23T13:52:21;8.57;;;5.93;;
12363;SDS011;6246;50.826;4.712;2024-03-23T13:54:51;7.53;;;5.77;;
12363;SDS011;6246;50.826;4.712;2024-03-23T13:57:17;8.07;;;5.80;;
12363;SDS011;6246;50.826;4.712;2024-03-23T13:59:46;8.30;;;5.63;;
12363;SDS011;6246;50.826;4.712;2024-03-23T14:02:13;7.27;;;5.50;;
12363;SDS011;6246;50.826;4.712;2024-03-23T14:04:40;9.00;;;5.60;;
12363;SDS011;6246;50.826;4.712;2024-03-23T14:07:06;6.83;;;5.50;;
12363;SDS011;6246;50.826;4.712;2024-03-23T14:09:34;6.90;;;5.20;;
12363;SDS011;6246;50.826;4.712;2024-03-23T14:12:00;5.23;;;4.63;;
12363;SDS011;6246;50.826;4.712;2024-03-23T14:14:26;7.00;;;4.77;;
12363;SDS011;6246;50.826;4.712;2024-03-23T14:16:52;7.63;;;5.50;;
12363;SDS011;6246;50.826;4.712;2024-03-23T14:19:18;7.07;;;4.70;;
12363;SDS011;6246;50.826;4.712;2024-03-23T14:21:44;6.07;;;4.77;;
12363;SDS011;6246;50.826;4.712;2024-03-23T14:24:11;5.77;;;4.67;;
12363;SDS011;6246;50.826;4.712;2024-03-23T14:26:37;6.43;;;4.80;;
12363;SDS011;6246;50.826;4.712;2024-03-23T14:29:03;5.53;;;4.40;;
12363;SDS011;6246;50.826;4.712;2024-03-23T14:31:29;6.53;;;4.50;;
12363;SDS011;6246;50.826;4.712;2024-03-23T14:33:55;6.23;;;4.43;;
12363;SDS011;6246;50.826;4.712;2024-03-23T14:36:21;5.43;;;4.40;;
12363;SDS011;6246;50.826;4.712;2024-03-23T14:38:48;6.40;;;3.83;;
12363;SDS011;6246;50.826;4.712;2024-03-23T14:41:14;5.27;;;4.30;;
12363;SDS011;6246;50.826;4.712;2024-03-23T14:43:40;5.10;;;3.97;;
12363;SDS011;6246;50.826;4.712;2024-03-23T14:46:14;5.27;;;3.97;;
12363;SDS011;6246;50.826;4.712;2024-03-23T14:48:41;5.03;;;3.93;;
12363;SDS011;6246;50.826;4.712;2024-03-23T14:51:08;5.73;;;3.77;;
12363;SDS011;6246;50.826;4.712;2024-03-23T14:53:36;5.83;;;4.00;;
12363;SDS011;6246;50.826;4.712;2024-03-23T14:56:04;6.63;;;4.03;;
12363;SDS011;6246;50.826;4.712;2024-03-23T14:58:30;5.23;;;3.40;;
12363;SDS011;6246;50.826;4.712;2024-03-23T15:01:00;10.80;;;3.87;;
12363;SDS011;6246;50.826;4.712;2024-03-23T15:03:26;5.87;;;3.63;;
12363;SDS011;6246;50.826;4.712;2024-03-23T15:05:55;4.20;;;3.43;;
12363;SDS011;6246;50.826;4.712;2024-03-23T15:08:21;4.23;;;3.20;;
12363;SDS011;6246;50.826;4.712;2024-03-23T15:10:48;4.23;;;3.60;;
12363;SDS011;6246;50.826;4.712;2024-03-23T15:13:14;5.47;;;3.17;;
12363;SDS011;6246;50.826;4.712;2024-03-23T15:15:40;8.17;;;3.33;;
12363;SDS011;6246;50.826;4.712;2024-03-23T15:18:12;4.60;;;3.30;;
12363;SDS011;6246;50.826;4.712;2024-03-23T15:20:39;4.10;;;2.90;;
12363;SDS011;6246;50.826;4.712;2024-03-23T15:23:05;4.53;;;3.20;;
12363;SDS011;6246;50.826;4.712;2024-03-23T15:25:31;5.23;;;3.50;;
12363;SDS011;6246;50.826;4.712;2024-03-23T15:27:58;7.53;;;3.50;;
12363;SDS011;6246;50.826;4.712;2024-03-23T15:30:25;6.80;;;2.83;;
12363;SDS011;6246;50.826;4.712;2024-03-23T15:32:51;8.07;;;2.40;;
12363;SDS011;6246;50.826;4.712;2024-03-23T15:35:17;5.77;;;2.70;;
12363;SDS011;6246;50.826;4.712;2024-03-23T15:37:44;13.07;;;3.37;;
12363;SDS011;6246;50.826;4.712;2024-03-23T15:40:10;15.00;;;3.20;;
12363;SDS011;6246;50.826;4.712;2024-03-23T15:42:38;5.27;;;2.90;;